sensor_id;sensor_type;location;lat;lon;timestamp;P1;durP1;ratioP1;P2;durP2;ratioP2
3853;SDS011;1942;48.770;8.934;2022-08-03T00:01:39;5.60;;;3.20;;
3853;SDS011;1942;48.770;8.934;2022-08-03T00:04:07;3.23;;;2.93;;
3853;SDS011;1942;48.770;8.934;2022-08-03T00:06:34;3.30;;;3.00;;
3853;SDS011;1942;48.770;8.934;2022-08-03T00:09:01;4.80;;;3.23;;
3853;SDS011;1942;48.770;8.934;2022-08-03T00:11:29;3.40;;;3.10;;
3853;SDS011;1942;48.770;8.934;2022-08-03T00:13:55;3.27;;;3.07;;
3853;SDS011;1942;48.770;8.934;2022-08-03T00:16:23;3.43;;;3.13;;
3853;SDS011;1942;48.770;8.934;2022-08-03T00:18:50;4.53;;;3.57;;
3853;SDS011;1942;48.770;8.934;2022-08-03T00:21:17;4.33;;;3.40;;
3853;SDS011;1942;48.770;8.934;2022-08-03T00:23:44;3.07;;;2.80;;
3853;SDS011;1942;48.770;8.934;2022-08-03T00:26:10;3.70;;;3.40;;
3853;SDS011;1942;48.770;8.934;2022-08-03T00:28:37;4.13;;;3.00;;
3853;SDS011;1942;48.770;8.934;2022-08-03T00:31:04;4.63;;;2.93;;
3853;SDS011;1942;48.770;8.934;2022-08-03T00:33:33;3.53;;;3.23;;
3853;SDS011;1942;48.770;8.934;2022-08-03T00:35:59;3.37;;;2.93;;
3853;SDS011;1942;48.770;8.934;2022-08-03T00:38:26;5.70;;;3.00;;
3853;SDS011;1942;48.770;8.934;2022-08-03T00:40:53;3.87;;;3.03;;
3853;SDS011;1942;48.770;8.934;2022-08-03T00:43:23;4.00;;;3.10;;
3853;SDS011;1942;48.770;8.934;2022-08-03T00:45:51;3.87;;;3.47;;
3853;SDS011;1942;48.770;8.934;2022-08-03T00:48:18;3.90;;;3.37;;
3853;SDS011;1942;48.770;8.934;2022-08-03T00:50:47;4.33;;;3.40;;
3853;SDS011;1942;48.770;8.934;2022-08-03T00:53:14;5.73;;;3.43;;
3853;SDS011;1942;48.770;8.934;2022-08-03T00:55:41;3.60;;;3.30;;
3853;SDS011;1942;48.770;8.934;2022-08-03T00:58:09;3.77;;;3.47;;
3853;SDS011;1942;48.770;8.934;2022-08-03T01:00:37;3.60;;;3.30;;
3853;SDS011;1942;48.770;8.934;2022-08-03T01:03:05;3.47;;;3.17;;
3853;SDS011;1942;48.770;8.934;2022-08-03T01:05:32;4.00;;;3.60;;
3853;SDS011;1942;48.770;8.934;2022-08-03T01:08:07;4.47;;;3.10;;
3853;SDS011;1942;48.770;8.934;2022-08-03T01:10:38;3.70;;;3.40;;
3853;SDS011;1942;48.770;8.934;2022-08-03T01:13:16;4.10;;;3.60;;
3853;SDS011;1942;48.770;8.934;2022-08-03T01:15:51;4.43;;;3.60;;
3853;SDS011;1942;48.770;8.934;2022-08-03T01:18:25;3.80;;;3.40;;
3853;SDS011;1942;48.770;8.934;2022-08-03T01:20:56;3.60;;;3.23;;
3853;SDS011;1942;48.770;8.934;2022-08-03T01:23:30;3.57;;;3.27;;
3853;SDS011;1942;48.770;8.934;2022-08-03T01:26:05;4.37;;;3.30;;
3853;SDS011;1942;48.770;8.934;2022-08-03T01:28:55;4.33;;;3.10;;
3853;SDS011;1942;48.770;8.934;2022-08-03T01:31:33;3.73;;;3.33;;
3853;SDS011;1942;48.770;8.934;2022-08-03T01:34:05;3.53;;;3.23;;
3853;SDS011;1942;48.770;8.934;2022-08-03T01:36:37;3.83;;;3.50;;
3853;SDS011;1942;48.770;8.934;2022-08-03T01:39:08;3.63;;;3.33;;
3853;SDS011;1942;48.770;8.934;2022-08-03T01:41:38;3.80;;;3.23;;
3853;SDS011;1942;48.770;8.934;2022-08-03T01:44:08;4.53;;;3.47;;
3853;SDS011;1942;48.770;8.934;2022-08-03T01:46:38;4.20;;;3.23;;
3853;SDS011;1942;48.770;8.934;2022-08-03T01:49:06;4.13;;;3.60;;
3853;SDS011;1942;48.770;8.934;2022-08-03T01:51:34;3.97;;;3.57;;
3853;SDS011;1942;48.770;8.934;2022-08-03T01:54:02;6.27;;;3.47;;
3853;SDS011;1942;48.770;8.934;2022-08-03T01:56:30;4.77;;;3.47;;
3853;SDS011;1942;48.770;8.934;2022-08-03T01:58:58;4.07;;;3.60;;
3853;SDS011;1942;48.770;8.934;2022-08-03T02:01:27;3.50;;;3.20;;
3853;SDS011;1942;48.770;8.934;2022-08-03T02:03:58;4.27;;;3.37;;
3853;SDS011;1942;48.770;8.934;2022-08-03T02:06:28;3.80;;;3.50;;
3853;SDS011;1942;48.770;8.934;2022-08-03T02:08:57;4.80;;;3.63;;
3853;SDS011;1942;48.770;8.934;2022-08-03T02:11:25;4.40;;;3.50;;
3853;SDS011;1942;48.770;8.934;2022-08-03T02:13:56;3.60;;;3.30;;
3853;SDS011;1942;48.770;8.934;2022-08-03T02:16:25;4.20;;;3.47;;
3853;SDS011;1942;48.770;8.934;2022-08-03T02:18:53;3.90;;;3.60;;
3853;SDS011;1942;48.770;8.934;2022-08-03T02:21:22;4.87;;;3.87;;
3853;SDS011;1942;48.770;8.934;2022-08-03T02:23:50;4.60;;;3.37;;
3853;SDS011;1942;48.770;8.934;2022-08-03T02:26:16;3.90;;;3.60;;
3853;SDS011;1942;48.770;8.934;2022-08-03T02:28:46;6.40;;;3.63;;
3853;SDS011;1942;48.770;8.934;2022-08-03T02:31:17;4.73;;;3.30;;
3853;SDS011;1942;48.770;8.934;2022-08-03T02:33:46;3.97;;;3.67;;
3853;SDS011;1942;48.770;8.934;2022-08-03T02:36:15;4.03;;;3.63;;
3853;SDS011;1942;48.770;8.934;2022-08-03T02:38:48;4.03;;;3.73;;
3853;SDS011;1942;48.770;8.934;2022-08-03T02:41:20;3.97;;;3.67;;
3853;SDS011;1942;48.770;8.934;2022-08-03T02:43:50;4.73;;;3.50;;
3853;SDS011;1942;48.770;8.934;2022-08-03T02:46:21;5.40;;;4.00;;
3853;SDS011;1942;48.770;8.934;2022-08-03T02:48:52;5.67;;;3.93;;
3853;SDS011;1942;48.770;8.934;2022-08-03T02:51:20;4.60;;;4.00;;
3853;SDS011;1942;48.770;8.934;2022-08-03T02:53:50;3.80;;;3.50;;
3853;SDS011;1942;48.770;8.934;2022-08-03T02:56:18;4.30;;;3.90;;
3853;SDS011;1942;48.770;8.934;2022-08-03T02:58:45;4.80;;;3.70;;
3853;SDS011;1942;48.770;8.934;2022-08-03T03:01:14;4.40;;;3.83;;
3853;SDS011;1942;48.770;8.934;2022-08-03T03:03:44;5.47;;;3.70;;
3853;SDS011;1942;48.770;8.934;2022-08-03T03:06:11;6.20;;;3.70;;
3853;SDS011;1942;48.770;8.934;2022-08-03T03:08:38;5.33;;;3.90;;
3853;SDS011;1942;48.770;8.934;2022-08-03T03:11:06;4.07;;;3.77;;
3853;SDS011;1942;48.770;8.934;2022-08-03T03:13:35;4.47;;;4.00;;
3853;SDS011;1942;48.770;8.934;2022-08-03T03:16:03;4.30;;;3.50;;
3853;SDS011;1942;48.770;8.934;2022-08-03T03:18:32;3.87;;;3.57;;
3853;SDS011;1942;48.770;8.934;2022-08-03T03:20:59;3.67;;;3.37;;
3853;SDS011;1942;48.770;8.934;2022-08-03T03:23:28;3.90;;;3.60;;
3853;SDS011;1942;48.770;8.934;2022-08-03T03:25:56;3.63;;;3.30;;
3853;SDS011;1942;48.770;8.934;2022-08-03T03:28:27;4.07;;;3.43;;
3853;SDS011;1942;48.770;8.934;2022-08-03T03:30:54;4.30;;;3.90;;
3853;SDS011;1942;48.770;8.934;2022-08-03T03:33:21;4.30;;;3.90;;
3853;SDS011;1942;48.770;8.934;2022-08-03T03:35:48;6.53;;;3.80;;
3853;SDS011;1942;48.770;8.934;2022-08-03T03:38:16;4.90;;;3.50;;
3853;SDS011;1942;48.770;8.934;2022-08-03T03:40:43;7.13;;;3.40;;
3853;SDS011;1942;48.770;8.934;2022-08-03T03:43:11;5.20;;;3.33;;
3853;SDS011;1942;48.770;8.934;2022-08-03T03:45:40;4.90;;;3.67;;
3853;SDS011;1942;48.770;8.934;2022-08-03T03:48:07;3.83;;;3.53;;
3853;SDS011;1942;48.770;8.934;2022-08-03T03:50:34;6.40;;;4.90;;
3853;SDS011;1942;48.770;8.934;2022-08-03T03:53:05;6.33;;;5.27;;
3853;SDS011;1942;48.770;8.934;2022-08-03T03:55:35;5.60;;;5.10;;
3853;SDS011;1942;48.770;8.934;2022-08-03T03:58:02;4.50;;;4.10;;
3853;SDS011;1942;48.770;8.934;2022-08-03T04:00:29;4.10;;;3.80;;
3853;SDS011;1942;48.770;8.934;2022-08-03T04:02:57;5.57;;;3.73;;
3853;SDS011;1942;48.770;8.934;2022-08-03T04:05:24;5.03;;;3.97;;
3853;SDS011;1942;48.770;8.934;2022-08-03T04:08:09;6.27;;;5.10;;
3853;SDS011;1942;48.770;8.934;2022-08-03T04:11:00;4.20;;;3.80;;
3853;SDS011;1942;48.770;8.934;2022-08-03T04:13:32;6.47;;;4.00;;
3853;SDS011;1942;48.770;8.934;2022-08-03T04:16:02;6.50;;;5.27;;
3853;SDS011;1942;48.770;8.934;2022-08-03T04:18:31;4.50;;;3.60;;
3853;SDS011;1942;48.770;8.934;2022-08-03T04:21:00;3.90;;;3.60;;
3853;SDS011;1942;48.770;8.934;2022-08-03T04:23:29;5.60;;;4.77;;
3853;SDS011;1942;48.770;8.934;2022-08-03T04:25:59;5.23;;;4.07;;
3853;SDS011;1942;48.770;8.934;2022-08-03T04:28:27;5.53;;;3.90;;
3853;SDS011;1942;48.770;8.934;2022-08-03T04:30:56;4.00;;;3.63;;
3853;SDS011;1942;48.770;8.934;2022-08-03T04:33:24;3.97;;;3.67;;
3853;SDS011;1942;48.770;8.934;2022-08-03T04:35:54;6.10;;;3.77;;
3853;SDS011;1942;48.770;8.934;2022-08-03T04:38:24;4.07;;;3.63;;
3853;SDS011;1942;48.770;8.934;2022-08-03T04:40:52;4.13;;;3.83;;
3853;SDS011;1942;48.770;8.934;2022-08-03T04:43:20;4.23;;;3.87;;
3853;SDS011;1942;48.770;8.934;2022-08-03T04:45:49;3.80;;;3.50;;
3853;SDS011;1942;48.770;8.934;2022-08-03T04:48:17;4.17;;;3.73;;
3853;SDS011;1942;48.770;8.934;2022-08-03T04:50:45;4.80;;;4.00;;
3853;SDS011;1942;48.770;8.934;2022-08-03T04:53:13;4.73;;;3.90;;
3853;SDS011;1942;48.770;8.934;2022-08-03T04:55:41;4.37;;;3.50;;
3853;SDS011;1942;48.770;8.934;2022-08-03T04:58:08;4.53;;;4.00;;
3853;SDS011;1942;48.770;8.934;2022-08-03T05:00:36;4.53;;;4.10;;
3853;SDS011;1942;48.770;8.934;2022-08-03T05:03:03;4.93;;;3.80;;
3853;SDS011;1942;48.770;8.934;2022-08-03T05:05:30;4.13;;;3.80;;
3853;SDS011;1942;48.770;8.934;2022-08-03T05:07:56;3.87;;;3.57;;
3853;SDS011;1942;48.770;8.934;2022-08-03T05:10:24;4.60;;;4.07;;
3853;SDS011;1942;48.770;8.934;2022-08-03T05:12:51;5.23;;;4.00;;
3853;SDS011;1942;48.770;8.934;2022-08-03T05:15:18;4.77;;;4.30;;
3853;SDS011;1942;48.770;8.934;2022-08-03T05:17:45;4.73;;;4.23;;
3853;SDS011;1942;48.770;8.934;2022-08-03T05:20:13;4.93;;;4.43;;
3853;SDS011;1942;48.770;8.934;2022-08-03T05:22:39;11.00;;;4.17;;
3853;SDS011;1942;48.770;8.934;2022-08-03T05:25:06;7.07;;;4.23;;
3853;SDS011;1942;48.770;8.934;2022-08-03T05:27:34;6.30;;;3.83;;
3853;SDS011;1942;48.770;8.934;2022-08-03T05:30:01;10.23;;;4.20;;
3853;SDS011;1942;48.770;8.934;2022-08-03T05:32:29;4.70;;;4.20;;
3853;SDS011;1942;48.770;8.934;2022-08-03T05:34:55;8.50;;;4.70;;
3853;SDS011;1942;48.770;8.934;2022-08-03T05:37:22;8.23;;;5.27;;
3853;SDS011;1942;48.770;8.934;2022-08-03T05:39:49;9.00;;;4.80;;
3853;SDS011;1942;48.770;8.934;2022-08-03T05:42:15;13.07;;;4.60;;
3853;SDS011;1942;48.770;8.934;2022-08-03T05:44:44;6.33;;;4.20;;
3853;SDS011;1942;48.770;8.934;2022-08-03T05:47:10;6.80;;;4.00;;
3853;SDS011;1942;48.770;8.934;2022-08-03T05:49:37;5.23;;;4.63;;
3853;SDS011;1942;48.770;8.934;2022-08-03T05:52:04;7.90;;;5.10;;
3853;SDS011;1942;48.770;8.934;2022-08-03T05:54:30;7.47;;;4.37;;
3853;SDS011;1942;48.770;8.934;2022-08-03T05:56:57;6.57;;;4.80;;
3853;SDS011;1942;48.770;8.934;2022-08-03T05:59:24;9.87;;;4.10;;
3853;SDS011;1942;48.770;8.934;2022-08-03T06:01:52;8.70;;;3.70;;
3853;SDS011;1942;48.770;8.934;2022-08-03T06:04:19;6.53;;;3.77;;
3853;SDS011;1942;48.770;8.934;2022-08-03T06:06:46;7.97;;;3.93;;
3853;SDS011;1942;48.770;8.934;2022-08-03T06:09:14;6.87;;;4.23;;
3853;SDS011;1942;48.770;8.934;2022-08-03T06:11:41;8.30;;;4.30;;
3853;SDS011;1942;48.770;8.934;2022-08-03T06:14:08;8.67;;;4.63;;
3853;SDS011;1942;48.770;8.934;2022-08-03T06:16:34;6.87;;;4.13;;
3853;SDS011;1942;48.770;8.934;2022-08-03T06:19:02;8.20;;;4.20;;
3853;SDS011;1942;48.770;8.934;2022-08-03T06:21:29;10.80;;;3.97;;
3853;SDS011;1942;48.770;8.934;2022-08-03T06:23:56;5.40;;;3.97;;
3853;SDS011;1942;48.770;8.934;2022-08-03T06:26:23;6.40;;;3.87;;
3853;SDS011;1942;48.770;8.934;2022-08-03T06:28:51;3.87;;;3.50;;
3853;SDS011;1942;48.770;8.934;2022-08-03T06:31:18;6.37;;;4.00;;
3853;SDS011;1942;48.770;8.934;2022-08-03T06:33:46;8.23;;;4.20;;
3853;SDS011;1942;48.770;8.934;2022-08-03T06:36:14;5.47;;;3.97;;
3853;SDS011;1942;48.770;8.934;2022-08-03T06:38:41;5.07;;;3.57;;
3853;SDS011;1942;48.770;8.934;2022-08-03T06:41:08;5.60;;;4.10;;
3853;SDS011;1942;48.770;8.934;2022-08-03T06:43:35;8.37;;;3.73;;
3853;SDS011;1942;48.770;8.934;2022-08-03T06:46:02;5.83;;;4.27;;
3853;SDS011;1942;48.770;8.934;2022-08-03T06:48:29;11.63;;;4.20;;
3853;SDS011;1942;48.770;8.934;2022-08-03T06:50:56;8.17;;;4.20;;
3853;SDS011;1942;48.770;8.934;2022-08-03T06:53:24;6.63;;;3.27;;
3853;SDS011;1942;48.770;8.934;2022-08-03T06:55:51;6.20;;;3.37;;
3853;SDS011;1942;48.770;8.934;2022-08-03T06:58:18;11.13;;;3.83;;
3853;SDS011;1942;48.770;8.934;2022-08-03T07:00:44;4.57;;;3.30;;
3853;SDS011;1942;48.770;8.934;2022-08-03T07:03:11;4.10;;;3.20;;
3853;SDS011;1942;48.770;8.934;2022-08-03T07:05:39;7.27;;;3.47;;
3853;SDS011;1942;48.770;8.934;2022-08-03T07:08:06;4.60;;;2.83;;
3853;SDS011;1942;48.770;8.934;2022-08-03T07:10:34;3.95;;;3.17;;
3853;SDS011;1942;48.770;8.934;2022-08-03T07:13:01;4.70;;;2.83;;
3853;SDS011;1942;48.770;8.934;2022-08-03T07:15:28;2.78;;;2.50;;
3853;SDS011;1942;48.770;8.934;2022-08-03T07:17:55;6.97;;;2.90;;
3853;SDS011;1942;48.770;8.934;2022-08-03T07:20:22;3.00;;;2.63;;
3853;SDS011;1942;48.770;8.934;2022-08-03T07:22:49;4.05;;;2.67;;
3853;SDS011;1942;48.770;8.934;2022-08-03T07:25:16;3.95;;;2.70;;
3853;SDS011;1942;48.770;8.934;2022-08-03T07:27:45;3.15;;;2.30;;
3853;SDS011;1942;48.770;8.934;2022-08-03T07:30:12;3.15;;;2.58;;
3853;SDS011;1942;48.770;8.934;2022-08-03T07:32:40;2.58;;;2.20;;
3853;SDS011;1942;48.770;8.934;2022-08-03T07:35:07;2.47;;;2.15;;
3853;SDS011;1942;48.770;8.934;2022-08-03T07:37:35;2.60;;;2.10;;
3853;SDS011;1942;48.770;8.934;2022-08-03T07:40:03;4.10;;;2.30;;
3853;SDS011;1942;48.770;8.934;2022-08-03T07:42:30;3.80;;;2.25;;
3853;SDS011;1942;48.770;8.934;2022-08-03T07:44:58;4.30;;;2.25;;
3853;SDS011;1942;48.770;8.934;2022-08-03T07:47:26;3.22;;;2.10;;
3853;SDS011;1942;48.770;8.934;2022-08-03T07:49:54;2.45;;;2.00;;
3853;SDS011;1942;48.770;8.934;2022-08-03T07:52:21;3.80;;;2.10;;
3853;SDS011;1942;48.770;8.934;2022-08-03T07:55:06;2.97;;;2.08;;
3853;SDS011;1942;48.770;8.934;2022-08-03T07:57:34;3.03;;;2.10;;
3853;SDS011;1942;48.770;8.934;2022-08-03T08:00:03;6.43;;;2.13;;
3853;SDS011;1942;48.770;8.934;2022-08-03T08:02:32;2.17;;;1.98;;
3853;SDS011;1942;48.770;8.934;2022-08-03T08:04:59;2.05;;;1.85;;
3853;SDS011;1942;48.770;8.934;2022-08-03T08:07:26;4.55;;;2.78;;
3853;SDS011;1942;48.770;8.934;2022-08-03T08:09:53;3.75;;;3.20;;
3853;SDS011;1942;48.770;8.934;2022-08-03T08:12:20;4.53;;;1.77;;
3853;SDS011;1942;48.770;8.934;2022-08-03T08:14:46;2.15;;;1.60;;
3853;SDS011;1942;48.770;8.934;2022-08-03T08:17:14;2.20;;;1.85;;
3853;SDS011;1942;48.770;8.934;2022-08-03T08:19:41;13.73;;;12.35;;
3853;SDS011;1942;48.770;8.934;2022-08-03T08:22:08;1.92;;;1.75;;
3853;SDS011;1942;48.770;8.934;2022-08-03T08:24:35;2.17;;;1.67;;
3853;SDS011;1942;48.770;8.934;2022-08-03T08:27:01;2.97;;;1.35;;
3853;SDS011;1942;48.770;8.934;2022-08-03T08:29:28;3.08;;;1.70;;
3853;SDS011;1942;48.770;8.934;2022-08-03T08:31:55;1.65;;;1.55;;
3853;SDS011;1942;48.770;8.934;2022-08-03T08:34:23;4.93;;;2.10;;
3853;SDS011;1942;48.770;8.934;2022-08-03T08:36:49;1.88;;;1.65;;
3853;SDS011;1942;48.770;8.934;2022-08-03T08:39:16;1.90;;;1.55;;
3853;SDS011;1942;48.770;8.934;2022-08-03T08:41:43;2.50;;;1.73;;
3853;SDS011;1942;48.770;8.934;2022-08-03T08:44:09;2.20;;;1.80;;
3853;SDS011;1942;48.770;8.934;2022-08-03T08:46:36;2.67;;;1.90;;
3853;SDS011;1942;48.770;8.934;2022-08-03T08:49:04;2.75;;;1.65;;
3853;SDS011;1942;48.770;8.934;2022-08-03T08:51:35;1.90;;;1.38;;
3853;SDS011;1942;48.770;8.934;2022-08-03T08:54:06;2.47;;;1.60;;
3853;SDS011;1942;48.770;8.934;2022-08-03T08:56:33;2.33;;;1.58;;
3853;SDS011;1942;48.770;8.934;2022-08-03T08:59:02;2.72;;;1.60;;
3853;SDS011;1942;48.770;8.934;2022-08-03T09:01:29;3.17;;;1.27;;
3853;SDS011;1942;48.770;8.934;2022-08-03T09:03:56;1.65;;;1.40;;
3853;SDS011;1942;48.770;8.934;2022-08-03T09:06:23;1.45;;;1.30;;
3853;SDS011;1942;48.770;8.934;2022-08-03T09:08:51;1.50;;;1.40;;
3853;SDS011;1942;48.770;8.934;2022-08-03T09:11:19;2.55;;;1.42;;
3853;SDS011;1942;48.770;8.934;2022-08-03T09:13:48;2.75;;;1.67;;
3853;SDS011;1942;48.770;8.934;2022-08-03T09:16:15;2.05;;;1.40;;
3853;SDS011;1942;48.770;8.934;2022-08-03T09:18:44;1.50;;;1.27;;
3853;SDS011;1942;48.770;8.934;2022-08-03T09:21:17;2.20;;;1.50;;
3853;SDS011;1942;48.770;8.934;2022-08-03T09:23:46;3.72;;;1.27;;
3853;SDS011;1942;48.770;8.934;2022-08-03T09:26:22;1.73;;;1.45;;
3853;SDS011;1942;48.770;8.934;2022-08-03T09:28:54;1.77;;;1.60;;
3853;SDS011;1942;48.770;8.934;2022-08-03T09:31:28;1.75;;;1.50;;
3853;SDS011;1942;48.770;8.934;2022-08-03T09:33:56;1.65;;;1.50;;
3853;SDS011;1942;48.770;8.934;2022-08-03T09:36:38;1.30;;;1.20;;
3853;SDS011;1942;48.770;8.934;2022-08-03T09:39:07;3.67;;;2.90;;
3853;SDS011;1942;48.770;8.934;2022-08-03T09:41:37;7.15;;;1.60;;
3853;SDS011;1942;48.770;8.934;2022-08-03T09:44:05;2.00;;;1.30;;
3853;SDS011;1942;48.770;8.934;2022-08-03T09:46:46;1.30;;;1.20;;
3853;SDS011;1942;48.770;8.934;2022-08-03T09:49:13;1.83;;;1.60;;
3853;SDS011;1942;48.770;8.934;2022-08-03T09:51:40;1.63;;;1.52;;
3853;SDS011;1942;48.770;8.934;2022-08-03T09:54:07;2.50;;;1.58;;
3853;SDS011;1942;48.770;8.934;2022-08-03T09:56:42;2.17;;;1.50;;
3853;SDS011;1942;48.770;8.934;2022-08-03T09:59:10;2.03;;;1.55;;
3853;SDS011;1942;48.770;8.934;2022-08-03T10:01:38;3.78;;;1.75;;
3853;SDS011;1942;48.770;8.934;2022-08-03T10:04:12;2.38;;;1.50;;
3853;SDS011;1942;48.770;8.934;2022-08-03T10:06:42;1.40;;;1.30;;
3853;SDS011;1942;48.770;8.934;2022-08-03T10:09:10;1.50;;;1.40;;
3853;SDS011;1942;48.770;8.934;2022-08-03T10:11:39;1.73;;;1.63;;
3853;SDS011;1942;48.770;8.934;2022-08-03T10:14:08;2.78;;;1.52;;
3853;SDS011;1942;48.770;8.934;2022-08-03T10:16:42;1.77;;;1.67;;
3853;SDS011;1942;48.770;8.934;2022-08-03T10:19:10;2.03;;;1.50;;
3853;SDS011;1942;48.770;8.934;2022-08-03T10:21:38;2.42;;;1.55;;
3853;SDS011;1942;48.770;8.934;2022-08-03T10:24:07;2.35;;;1.48;;
3853;SDS011;1942;48.770;8.934;2022-08-03T10:26:35;1.88;;;1.77;;
3853;SDS011;1942;48.770;8.934;2022-08-03T10:29:04;2.03;;;1.40;;
3853;SDS011;1942;48.770;8.934;2022-08-03T10:31:38;2.20;;;1.83;;
3853;SDS011;1942;48.770;8.934;2022-08-03T10:34:06;1.67;;;1.58;;
3853;SDS011;1942;48.770;8.934;2022-08-03T10:36:38;1.77;;;1.60;;
3853;SDS011;1942;48.770;8.934;2022-08-03T10:39:07;3.67;;;1.50;;
3853;SDS011;1942;48.770;8.934;2022-08-03T10:41:37;1.92;;;1.60;;
3853;SDS011;1942;48.770;8.934;2022-08-03T10:44:07;4.05;;;2.42;;
3853;SDS011;1942;48.770;8.934;2022-08-03T10:46:38;2.03;;;1.80;;
3853;SDS011;1942;48.770;8.934;2022-08-03T10:49:06;1.88;;;1.67;;
3853;SDS011;1942;48.770;8.934;2022-08-03T10:51:33;1.60;;;1.50;;
3853;SDS011;1942;48.770;8.934;2022-08-03T10:54:01;2.92;;;2.00;;
3853;SDS011;1942;48.770;8.934;2022-08-03T10:56:37;1.90;;;1.70;;
3853;SDS011;1942;48.770;8.934;2022-08-03T11:05:26;1.92;;;1.70;;
3853;SDS011;1942;48.770;8.934;2022-08-03T11:10:45;2.38;;;1.73;;
3853;SDS011;1942;48.770;8.934;2022-08-03T11:13:13;5.47;;;4.95;;
3853;SDS011;1942;48.770;8.934;2022-08-03T11:15:42;1.60;;;1.50;;
3853;SDS011;1942;48.770;8.934;2022-08-03T11:18:11;3.63;;;2.30;;
3853;SDS011;1942;48.770;8.934;2022-08-03T11:20:47;2.13;;;1.92;;
3853;SDS011;1942;48.770;8.934;2022-08-03T11:23:16;2.53;;;1.33;;
3853;SDS011;1942;48.770;8.934;2022-08-03T11:28:43;1.73;;;1.63;;
3853;SDS011;1942;48.770;8.934;2022-08-03T11:34:09;1.80;;;1.70;;
3853;SDS011;1942;48.770;8.934;2022-08-03T11:39:38;3.65;;;1.85;;
3853;SDS011;1942;48.770;8.934;2022-08-03T11:45:06;1.60;;;1.50;;
3853;SDS011;1942;48.770;8.934;2022-08-03T11:47:35;4.32;;;1.90;;
3853;SDS011;1942;48.770;8.934;2022-08-03T11:50:04;2.22;;;1.92;;
3853;SDS011;1942;48.770;8.934;2022-08-03T11:52:33;2.47;;;1.73;;
3853;SDS011;1942;48.770;8.934;2022-08-03T11:55:04;2.22;;;1.65;;
3853;SDS011;1942;48.770;8.934;2022-08-03T11:57:40;1.67;;;1.58;;
3853;SDS011;1942;48.770;8.934;2022-08-03T12:00:23;1.60;;;1.50;;
3853;SDS011;1942;48.770;8.934;2022-08-03T12:02:55;1.90;;;1.80;;
3853;SDS011;1942;48.770;8.934;2022-08-03T12:05:33;1.70;;;1.60;;
3853;SDS011;1942;48.770;8.934;2022-08-03T12:08:11;1.80;;;1.70;;
3853;SDS011;1942;48.770;8.934;2022-08-03T12:10:45;2.55;;;1.80;;
3853;SDS011;1942;48.770;8.934;2022-08-03T12:13:15;3.30;;;2.70;;
3853;SDS011;1942;48.770;8.934;2022-08-03T12:15:43;5.65;;;2.25;;
3853;SDS011;1942;48.770;8.934;2022-08-03T12:18:16;1.67;;;1.58;;
3853;SDS011;1942;48.770;8.934;2022-08-03T12:20:45;1.67;;;1.50;;
3853;SDS011;1942;48.770;8.934;2022-08-03T12:23:13;1.75;;;1.60;;
3853;SDS011;1942;48.770;8.934;2022-08-03T12:25:42;2.42;;;1.80;;
3853;SDS011;1942;48.770;8.934;2022-08-03T12:28:11;3.30;;;2.10;;
3853;SDS011;1942;48.770;8.934;2022-08-03T12:30:43;3.67;;;1.77;;
3853;SDS011;1942;48.770;8.934;2022-08-03T12:33:19;3.20;;;1.90;;
3853;SDS011;1942;48.770;8.934;2022-08-03T12:35:48;2.55;;;1.55;;
3853;SDS011;1942;48.770;8.934;2022-08-03T12:38:20;4.10;;;1.85;;
3853;SDS011;1942;48.770;8.934;2022-08-03T12:40:56;2.45;;;1.75;;
3853;SDS011;1942;48.770;8.934;2022-08-03T12:43:26;4.32;;;1.90;;
3853;SDS011;1942;48.770;8.934;2022-08-03T12:46:06;3.28;;;1.80;;
3853;SDS011;1942;48.770;8.934;2022-08-03T12:48:34;2.78;;;1.60;;
3853;SDS011;1942;48.770;8.934;2022-08-03T12:51:08;1.90;;;1.80;;
3853;SDS011;1942;48.770;8.934;2022-08-03T12:53:36;5.45;;;1.90;;
3853;SDS011;1942;48.770;8.934;2022-08-03T12:56:04;2.55;;;1.80;;
3853;SDS011;1942;48.770;8.934;2022-08-03T12:58:32;1.73;;;1.60;;
3853;SDS011;1942;48.770;8.934;2022-08-03T13:01:01;2.30;;;1.52;;
3853;SDS011;1942;48.770;8.934;2022-08-03T13:03:29;2.20;;;1.60;;
3853;SDS011;1942;48.770;8.934;2022-08-03T13:06:09;2.83;;;1.90;;
3853;SDS011;1942;48.770;8.934;2022-08-03T13:08:36;2.85;;;1.60;;
3853;SDS011;1942;48.770;8.934;2022-08-03T13:11:17;1.60;;;1.50;;
3853;SDS011;1942;48.770;8.934;2022-08-03T13:13:49;2.90;;;1.80;;
3853;SDS011;1942;48.770;8.934;2022-08-03T13:16:17;1.60;;;1.50;;
3853;SDS011;1942;48.770;8.934;2022-08-03T13:18:46;1.67;;;1.55;;
3853;SDS011;1942;48.770;8.934;2022-08-03T13:21:13;2.45;;;1.48;;
3853;SDS011;1942;48.770;8.934;2022-08-03T13:23:41;2.63;;;1.90;;
3853;SDS011;1942;48.770;8.934;2022-08-03T13:26:09;1.95;;;1.80;;
3853;SDS011;1942;48.770;8.934;2022-08-03T13:28:37;4.63;;;2.45;;
3853;SDS011;1942;48.770;8.934;2022-08-03T13:31:05;4.68;;;2.10;;
3853;SDS011;1942;48.770;8.934;2022-08-03T13:33:32;2.63;;;1.80;;
3853;SDS011;1942;48.770;8.934;2022-08-03T13:35:58;3.13;;;1.67;;
3853;SDS011;1942;48.770;8.934;2022-08-03T13:38:28;2.90;;;1.88;;
3853;SDS011;1942;48.770;8.934;2022-08-03T13:40:55;1.95;;;1.67;;
3853;SDS011;1942;48.770;8.934;2022-08-03T13:43:24;3.25;;;1.70;;
3853;SDS011;1942;48.770;8.934;2022-08-03T13:45:54;2.75;;;1.67;;
3853;SDS011;1942;48.770;8.934;2022-08-03T13:48:21;2.42;;;1.70;;
3853;SDS011;1942;48.770;8.934;2022-08-03T13:50:48;2.13;;;1.63;;
3853;SDS011;1942;48.770;8.934;2022-08-03T13:53:14;2.13;;;1.83;;
3853;SDS011;1942;48.770;8.934;2022-08-03T13:55:41;1.73;;;1.58;;
3853;SDS011;1942;48.770;8.934;2022-08-03T13:58:08;2.25;;;1.55;;
3853;SDS011;1942;48.770;8.934;2022-08-03T14:00:36;2.53;;;1.75;;
3853;SDS011;1942;48.770;8.934;2022-08-03T14:03:08;2.78;;;1.80;;
3853;SDS011;1942;48.770;8.934;2022-08-03T14:05:35;3.08;;;1.95;;
3853;SDS011;1942;48.770;8.934;2022-08-03T14:08:03;2.72;;;2.00;;
3853;SDS011;1942;48.770;8.934;2022-08-03T14:10:31;1.70;;;1.50;;
3853;SDS011;1942;48.770;8.934;2022-08-03T14:12:58;1.80;;;1.70;;
3853;SDS011;1942;48.770;8.934;2022-08-03T14:15:25;1.90;;;1.70;;
3853;SDS011;1942;48.770;8.934;2022-08-03T14:17:53;1.92;;;1.73;;
3853;SDS011;1942;48.770;8.934;2022-08-03T14:20:22;1.65;;;1.55;;
3853;SDS011;1942;48.770;8.934;2022-08-03T14:22:49;3.45;;;1.75;;
3853;SDS011;1942;48.770;8.934;2022-08-03T14:25:16;2.47;;;1.73;;
3853;SDS011;1942;48.770;8.934;2022-08-03T14:27:43;1.60;;;1.50;;
3853;SDS011;1942;48.770;8.934;2022-08-03T14:30:10;2.50;;;1.55;;
3853;SDS011;1942;48.770;8.934;2022-08-03T14:32:37;1.83;;;1.73;;
3853;SDS011;1942;48.770;8.934;2022-08-03T14:35:05;2.63;;;1.63;;
3853;SDS011;1942;48.770;8.934;2022-08-03T14:37:34;1.63;;;1.52;;
3853;SDS011;1942;48.770;8.934;2022-08-03T14:40:01;1.80;;;1.70;;
3853;SDS011;1942;48.770;8.934;2022-08-03T14:42:28;2.38;;;1.77;;
3853;SDS011;1942;48.770;8.934;2022-08-03T14:44:55;1.48;;;1.38;;
3853;SDS011;1942;48.770;8.934;2022-08-03T14:47:23;3.00;;;1.60;;
3853;SDS011;1942;48.770;8.934;2022-08-03T14:49:51;4.38;;;2.03;;
3853;SDS011;1942;48.770;8.934;2022-08-03T14:52:17;3.80;;;1.85;;
3853;SDS011;1942;48.770;8.934;2022-08-03T14:54:46;2.20;;;1.73;;
3853;SDS011;1942;48.770;8.934;2022-08-03T14:57:13;2.20;;;1.90;;
3853;SDS011;1942;48.770;8.934;2022-08-03T14:59:40;1.90;;;1.70;;
3853;SDS011;1942;48.770;8.934;2022-08-03T15:02:07;2.78;;;1.52;;
3853;SDS011;1942;48.770;8.934;2022-08-03T15:04:34;2.10;;;1.90;;
3853;SDS011;1942;48.770;8.934;2022-08-03T15:07:01;2.80;;;2.30;;
3853;SDS011;1942;48.770;8.934;2022-08-03T15:09:28;4.68;;;1.73;;
3853;SDS011;1942;48.770;8.934;2022-08-03T15:11:56;2.78;;;1.80;;
3853;SDS011;1942;48.770;8.934;2022-08-03T15:14:23;2.08;;;1.50;;
3853;SDS011;1942;48.770;8.934;2022-08-03T15:16:50;2.10;;;1.35;;
3853;SDS011;1942;48.770;8.934;2022-08-03T15:19:17;5.30;;;1.90;;
3853;SDS011;1942;48.770;8.934;2022-08-03T15:21:44;3.97;;;1.85;;
3853;SDS011;1942;48.770;8.934;2022-08-03T15:24:11;4.15;;;1.95;;
3853;SDS011;1942;48.770;8.934;2022-08-03T15:26:37;2.00;;;1.80;;
3853;SDS011;1942;48.770;8.934;2022-08-03T15:29:06;2.00;;;1.77;;
3853;SDS011;1942;48.770;8.934;2022-08-03T15:31:33;2.78;;;1.65;;
3853;SDS011;1942;48.770;8.934;2022-08-03T15:34:00;1.70;;;1.60;;
3853;SDS011;1942;48.770;8.934;2022-08-03T15:36:27;2.13;;;1.90;;
3853;SDS011;1942;48.770;8.934;2022-08-03T15:38:54;2.10;;;1.88;;
3853;SDS011;1942;48.770;8.934;2022-08-03T15:41:21;2.80;;;1.70;;
3853;SDS011;1942;48.770;8.934;2022-08-03T15:43:47;1.80;;;1.70;;
3853;SDS011;1942;48.770;8.934;2022-08-03T15:46:18;1.85;;;1.63;;